sensor_id;sensor_type;location;lat;lon;timestamp;P1;durP1;ratioP1;P2;durP2;ratioP2
59167;SDS011;44948;55.046;73.266;2023-03-31T00:02:59;26.98;;;8.73;;
59167;SDS011;44948;55.046;73.266;2023-03-31T00:06:03;24.23;;;7.63;;
59167;SDS011;44948;55.046;73.266;2023-03-31T00:09:16;30.33;;;10.00;;
59167;SDS011;44948;55.046;73.266;2023-03-31T00:12:27;29.17;;;10.75;;
59167;SDS011;44948;55.046;73.266;2023-03-31T00:15:30;24.50;;;9.55;;
59167;SDS011;44948;55.046;73.266;2023-03-31T00:18:32;23.92;;;7.15;;
59167;SDS011;44948;55.046;73.266;2023-03-31T00:21:35;23.50;;;7.05;;
59167;SDS011;44948;55.046;73.266;2023-03-31T00:24:37;25.40;;;7.60;;
59167;SDS011;44948;55.046;73.266;2023-03-31T00:27:44;21.30;;;8.15;;
59167;SDS011;44948;55.046;73.266;2023-03-31T00:30:48;21.50;;;7.15;;
59167;SDS011;44948;55.046;73.266;2023-03-31T00:33:56;22.55;;;7.65;;
59167;SDS011;44948;55.046;73.266;2023-03-31T00:36:59;26.35;;;8.90;;
59167;SDS011;44948;55.046;73.266;2023-03-31T00:40:03;27.60;;;7.18;;
59167;SDS011;44948;55.046;73.266;2023-03-31T00:43:30;28.10;;;6.38;;
59167;SDS011;44948;55.046;73.266;2023-03-31T00:47:20;31.48;;;7.38;;
59167;SDS011;44948;55.046;73.266;2023-03-31T00:50:31;26.45;;;8.63;;
59167;SDS011;44948;55.046;73.266;2023-03-31T00:53:36;28.95;;;7.45;;
59167;SDS011;44948;55.046;73.266;2023-03-31T00:56:39;28.15;;;9.65;;
59167;SDS011;44948;55.046;73.266;2023-03-31T00:59:45;35.72;;;10.32;;
59167;SDS011;44948;55.046;73.266;2023-03-31T01:02:54;41.40;;;11.60;;
59167;SDS011;44948;55.046;73.266;2023-03-31T01:06:00;36.60;;;12.97;;
59167;SDS011;44948;55.046;73.266;2023-03-31T01:09:06;84.50;;;21.73;;
59167;SDS011;44948;55.046;73.266;2023-03-31T01:12:08;103.32;;;25.55;;
59167;SDS011;44948;55.046;73.266;2023-03-31T01:15:12;120.50;;;31.83;;
59167;SDS011;44948;55.046;73.266;2023-03-31T01:18:16;116.93;;;31.60;;
59167;SDS011;44948;55.046;73.266;2023-03-31T01:47:52;23.48;;;8.48;;
59167;SDS011;44948;55.046;73.266;2023-03-31T01:51:05;29.88;;;7.53;;
59167;SDS011;44948;55.046;73.266;2023-03-31T01:57:52;13.88;;;4.40;;
59167;SDS011;44948;55.046;73.266;2023-03-31T02:00:59;23.52;;;5.05;;
59167;SDS011;44948;55.046;73.266;2023-03-31T02:04:11;11.00;;;3.75;;
59167;SDS011;44948;55.046;73.266;2023-03-31T02:07:25;6.63;;;2.20;;
59167;SDS011;44948;55.046;73.266;2023-03-31T02:10:33;9.63;;;3.45;;
59167;SDS011;44948;55.046;73.266;2023-03-31T02:13:37;11.50;;;2.70;;
59167;SDS011;44948;55.046;73.266;2023-03-31T02:16:42;9.85;;;3.55;;
59167;SDS011;44948;55.046;73.266;2023-03-31T02:20:00;8.20;;;3.60;;
59167;SDS011;44948;55.046;73.266;2023-03-31T02:23:09;10.98;;;3.22;;
59167;SDS011;44948;55.046;73.266;2023-03-31T02:26:15;5.40;;;2.35;;
59167;SDS011;44948;55.046;73.266;2023-03-31T02:29:24;3.47;;;1.70;;
59167;SDS011;44948;55.046;73.266;2023-03-31T02:32:31;5.97;;;2.05;;
59167;SDS011;44948;55.046;73.266;2023-03-31T02:35:45;8.38;;;1.90;;
59167;SDS011;44948;55.046;73.266;2023-03-31T02:38:58;5.88;;;2.33;;
59167;SDS011;44948;55.046;73.266;2023-03-31T02:42:06;12.18;;;4.32;;
59167;SDS011;44948;55.046;73.266;2023-03-31T02:48:48;10.63;;;3.03;;
59167;SDS011;44948;55.046;73.266;2023-03-31T03:16:25;8.50;;;3.07;;
59167;SDS011;44948;55.046;73.266;2023-03-31T03:19:33;16.67;;;2.83;;
59167;SDS011;44948;55.046;73.266;2023-03-31T03:22:40;17.80;;;5.40;;
59167;SDS011;44948;55.046;73.266;2023-03-31T03:25:43;27.60;;;9.60;;
59167;SDS011;44948;55.046;73.266;2023-03-31T03:28:46;12.07;;;5.00;;
59167;SDS011;44948;55.046;73.266;2023-03-31T03:31:49;3.47;;;1.13;;
59167;SDS011;44948;55.046;73.266;2023-03-31T03:34:52;7.28;;;1.80;;
59167;SDS011;44948;55.046;73.266;2023-03-31T03:37:54;4.97;;;1.55;;
59167;SDS011;44948;55.046;73.266;2023-03-31T03:40:57;4.07;;;1.10;;
59167;SDS011;44948;55.046;73.266;2023-03-31T03:43:59;6.38;;;1.95;;
59167;SDS011;44948;55.046;73.266;2023-03-31T03:47:02;3.85;;;1.05;;
59167;SDS011;44948;55.046;73.266;2023-03-31T03:50:05;6.35;;;1.30;;
59167;SDS011;44948;55.046;73.266;2023-03-31T03:53:10;5.45;;;1.65;;
59167;SDS011;44948;55.046;73.266;2023-03-31T03:56:14;3.47;;;1.10;;
59167;SDS011;44948;55.046;73.266;2023-03-31T03:59:16;7.15;;;1.92;;
59167;SDS011;44948;55.046;73.266;2023-03-31T04:02:19;2.50;;;1.17;;
59167;SDS011;44948;55.046;73.266;2023-03-31T04:05:26;6.68;;;1.77;;
59167;SDS011;44948;55.046;73.266;2023-03-31T04:08:39;6.85;;;1.77;;
59167;SDS011;44948;55.046;73.266;2023-03-31T04:11:41;6.07;;;1.13;;
59167;SDS011;44948;55.046;73.266;2023-03-31T04:14:43;1.40;;;0.73;;
59167;SDS011;44948;55.046;73.266;2023-03-31T04:17:48;2.78;;;0.90;;
59167;SDS011;44948;55.046;73.266;2023-03-31T04:21:00;3.22;;;1.10;;
59167;SDS011;44948;55.046;73.266;2023-03-31T04:24:08;2.53;;;0.80;;
59167;SDS011;44948;55.046;73.266;2023-03-31T04:27:13;4.05;;;0.88;;
59167;SDS011;44948;55.046;73.266;2023-03-31T04:30:18;2.65;;;0.90;;
59167;SDS011;44948;55.046;73.266;2023-03-31T04:33:23;2.50;;;1.08;;
59167;SDS011;44948;55.046;73.266;2023-03-31T04:36:28;4.22;;;0.90;;
59167;SDS011;44948;55.046;73.266;2023-03-31T04:39:31;3.13;;;0.95;;
59167;SDS011;44948;55.046;73.266;2023-03-31T04:42:34;2.53;;;1.05;;
59167;SDS011;44948;55.046;73.266;2023-03-31T04:45:36;1.58;;;0.90;;
59167;SDS011;44948;55.046;73.266;2023-03-31T04:48:44;2.35;;;0.80;;
59167;SDS011;44948;55.046;73.266;2023-03-31T04:51:46;2.10;;;0.85;;
59167;SDS011;44948;55.046;73.266;2023-03-31T04:54:53;5.00;;;1.66;;
59167;SDS011;44948;55.046;73.266;2023-03-31T04:57:56;5.07;;;1.30;;
59167;SDS011;44948;55.046;73.266;2023-03-31T05:00:58;7.65;;;1.58;;
59167;SDS011;44948;55.046;73.266;2023-03-31T05:04:01;2.72;;;1.33;;
59167;SDS011;44948;55.046;73.266;2023-03-31T05:07:04;4.05;;;1.20;;
59167;SDS011;44948;55.046;73.266;2023-03-31T05:10:07;5.13;;;1.33;;
59167;SDS011;44948;55.046;73.266;2023-03-31T05:13:09;4.07;;;0.75;;
59167;SDS011;44948;55.046;73.266;2023-03-31T05:16:12;5.35;;;1.30;;
59167;SDS011;44948;55.046;73.266;2023-03-31T05:19:16;2.72;;;0.77;;
59167;SDS011;44948;55.046;73.266;2023-03-31T05:22:19;5.80;;;1.70;;
59167;SDS011;44948;55.046;73.266;2023-03-31T05:25:21;1.87;;;0.97;;
59167;SDS011;44948;55.046;73.266;2023-03-31T05:28:24;1.42;;;0.90;;
59167;SDS011;44948;55.046;73.266;2023-03-31T05:31:26;2.38;;;0.90;;
59167;SDS011;44948;55.046;73.266;2023-03-31T05:34:31;3.00;;;1.20;;
59167;SDS011;44948;55.046;73.266;2023-03-31T05:37:33;4.17;;;1.00;;
59167;SDS011;44948;55.046;73.266;2023-03-31T05:40:36;3.70;;;1.05;;
59167;SDS011;44948;55.046;73.266;2023-03-31T05:43:38;3.88;;;1.20;;
59167;SDS011;44948;55.046;73.266;2023-03-31T05:46:41;3.50;;;1.20;;
59167;SDS011;44948;55.046;73.266;2023-03-31T05:49:45;8.32;;;2.88;;
59167;SDS011;44948;55.046;73.266;2023-03-31T05:52:48;3.50;;;1.63;;
59167;SDS011;44948;55.046;73.266;2023-03-31T05:55:55;3.58;;;1.40;;
59167;SDS011;44948;55.046;73.266;2023-03-31T05:59:03;4.47;;;1.45;;
59167;SDS011;44948;55.046;73.266;2023-03-31T06:02:06;3.58;;;1.83;;
59167;SDS011;44948;55.046;73.266;2023-03-31T06:05:11;5.60;;;1.40;;
59167;SDS011;44948;55.046;73.266;2023-03-31T06:08:14;3.97;;;1.20;;
59167;SDS011;44948;55.046;73.266;2023-03-31T06:11:22;4.70;;;1.23;;
59167;SDS011;44948;55.046;73.266;2023-03-31T06:14:25;5.75;;;1.90;;
59167;SDS011;44948;55.046;73.266;2023-03-31T06:17:30;4.17;;;1.80;;
59167;SDS011;44948;55.046;73.266;2023-03-31T06:20:32;5.47;;;2.03;;
59167;SDS011;44948;55.046;73.266;2023-03-31T06:23:35;8.38;;;2.72;;
59167;SDS011;44948;55.046;73.266;2023-03-31T06:26:37;5.85;;;1.23;;
59167;SDS011;44948;55.046;73.266;2023-03-31T06:29:44;9.68;;;1.40;;
59167;SDS011;44948;55.046;73.266;2023-03-31T06:32:47;5.10;;;1.33;;
59167;SDS011;44948;55.046;73.266;2023-03-31T06:35:54;4.01;;;1.63;;
59167;SDS011;44948;55.046;73.266;2023-03-31T06:38:57;4.05;;;1.60;;
59167;SDS011;44948;55.046;73.266;2023-03-31T06:41:59;3.20;;;1.60;;
59167;SDS011;44948;55.046;73.266;2023-03-31T06:45:03;5.80;;;1.40;;
59167;SDS011;44948;55.046;73.266;2023-03-31T06:48:06;5.00;;;1.50;;
59167;SDS011;44948;55.046;73.266;2023-03-31T06:51:08;5.53;;;1.58;;
59167;SDS011;44948;55.046;73.266;2023-03-31T06:54:11;6.00;;;2.03;;
59167;SDS011;44948;55.046;73.266;2023-03-31T06:57:13;4.43;;;1.88;;
59167;SDS011;44948;55.046;73.266;2023-03-31T07:00:21;7.38;;;1.52;;
59167;SDS011;44948;55.046;73.266;2023-03-31T07:03:26;5.55;;;1.80;;
59167;SDS011;44948;55.046;73.266;2023-03-31T07:06:29;6.70;;;1.52;;
59167;SDS011;44948;55.046;73.266;2023-03-31T07:09:32;4.63;;;1.40;;
59167;SDS011;44948;55.046;73.266;2023-03-31T07:12:35;8.10;;;1.33;;
59167;SDS011;44948;55.046;73.266;2023-03-31T07:15:43;6.75;;;1.42;;
59167;SDS011;44948;55.046;73.266;2023-03-31T07:18:48;6.40;;;1.50;;
59167;SDS011;44948;55.046;73.266;2023-03-31T07:21:51;6.40;;;2.20;;
59167;SDS011;44948;55.046;73.266;2023-03-31T07:24:53;7.88;;;1.80;;
59167;SDS011;44948;55.046;73.266;2023-03-31T07:27:56;4.53;;;2.03;;
59167;SDS011;44948;55.046;73.266;2023-03-31T07:30:58;5.75;;;1.65;;
59167;SDS011;44948;55.046;73.266;2023-03-31T07:34:11;6.38;;;1.70;;
59167;SDS011;44948;55.046;73.266;2023-03-31T07:37:13;9.07;;;2.20;;
59167;SDS011;44948;55.046;73.266;2023-03-31T07:40:26;5.28;;;1.70;;
59167;SDS011;44948;55.046;73.266;2023-03-31T07:43:30;5.65;;;1.80;;
59167;SDS011;44948;55.046;73.266;2023-03-31T07:46:32;10.27;;;2.30;;
59167;SDS011;44948;55.046;73.266;2023-03-31T07:49:35;6.35;;;1.73;;
59167;SDS011;44948;55.046;73.266;2023-03-31T07:52:38;4.38;;;2.03;;
59167;SDS011;44948;55.046;73.266;2023-03-31T07:55:41;4.82;;;2.08;;
59167;SDS011;44948;55.046;73.266;2023-03-31T07:58:53;3.67;;;1.70;;
59167;SDS011;44948;55.046;73.266;2023-03-31T08:01:56;4.90;;;1.30;;
59167;SDS011;44948;55.046;73.266;2023-03-31T08:04:59;10.32;;;2.05;;
59167;SDS011;44948;55.046;73.266;2023-03-31T08:08:02;8.98;;;1.83;;
59167;SDS011;44948;55.046;73.266;2023-03-31T08:11:04;5.35;;;1.42;;
59167;SDS011;44948;55.046;73.266;2023-03-31T08:14:17;10.35;;;1.88;;
59167;SDS011;44948;55.046;73.266;2023-03-31T08:17:21;5.90;;;1.50;;
59167;SDS011;44948;55.046;73.266;2023-03-31T08:20:23;4.55;;;2.40;;
59167;SDS011;44948;55.046;73.266;2023-03-31T08:23:26;5.05;;;1.95;;
59167;SDS011;44948;55.046;73.266;2023-03-31T08:26:29;3.55;;;1.55;;
59167;SDS011;44948;55.046;73.266;2023-03-31T08:29:42;4.00;;;1.80;;
59167;SDS011;44948;55.046;73.266;2023-03-31T08:32:44;6.38;;;1.90;;
59167;SDS011;44948;55.046;73.266;2023-03-31T08:35:47;3.53;;;1.40;;
59167;SDS011;44948;55.046;73.266;2023-03-31T08:38:50;7.60;;;2.08;;
59167;SDS011;44948;55.046;73.266;2023-03-31T08:48:31;5.07;;;1.63;;
59167;SDS011;44948;55.046;73.266;2023-03-31T08:51:40;4.68;;;1.45;;
59167;SDS011;44948;55.046;73.266;2023-03-31T08:54:48;5.47;;;1.90;;
59167;SDS011;44948;55.046;73.266;2023-03-31T08:57:58;6.20;;;2.22;;
59167;SDS011;44948;55.046;73.266;2023-03-31T09:11:41;9.45;;;2.25;;
59167;SDS011;44948;55.046;73.266;2023-03-31T09:15:09;13.60;;;2.00;;
59167;SDS011;44948;55.046;73.266;2023-03-31T09:18:24;11.45;;;1.92;;
59167;SDS011;44948;55.046;73.266;2023-03-31T09:21:40;7.93;;;2.03;;
59167;SDS011;44948;55.046;73.266;2023-03-31T09:27:57;6.30;;;2.50;;
59167;SDS011;44948;55.046;73.266;2023-03-31T09:31:15;9.25;;;2.40;;
59167;SDS011;44948;55.046;73.266;2023-03-31T09:34:24;8.13;;;2.38;;
59167;SDS011;44948;55.046;73.266;2023-03-31T09:37:32;6.57;;;1.83;;
59167;SDS011;44948;55.046;73.266;2023-03-31T09:40:35;7.82;;;2.88;;
59167;SDS011;44948;55.046;73.266;2023-03-31T09:43:37;7.82;;;2.30;;
59167;SDS011;44948;55.046;73.266;2023-03-31T09:46:42;11.82;;;2.80;;
59167;SDS011;44948;55.046;73.266;2023-03-31T09:49:44;6.13;;;2.07;;
59167;SDS011;44948;55.046;73.266;2023-03-31T09:52:52;20.77;;;7.93;;
59167;SDS011;44948;55.046;73.266;2023-03-31T09:56:00;25.67;;;17.65;;
59167;SDS011;44948;55.046;73.266;2023-03-31T09:59:04;7.35;;;2.65;;
59167;SDS011;44948;55.046;73.266;2023-03-31T10:02:41;3.78;;;1.50;;
59167;SDS011;44948;55.046;73.266;2023-03-31T10:05:50;3.83;;;1.65;;
59167;SDS011;44948;55.046;73.266;2023-03-31T10:12:08;12.90;;;2.70;;
59167;SDS011;44948;55.046;73.266;2023-03-31T10:15:22;6.68;;;2.10;;
59167;SDS011;44948;55.046;73.266;2023-03-31T10:18:31;6.90;;;2.60;;
59167;SDS011;44948;55.046;73.266;2023-03-31T10:21:36;6.40;;;2.25;;
59167;SDS011;44948;55.046;73.266;2023-03-31T10:24:40;10.00;;;3.13;;
59167;SDS011;44948;55.046;73.266;2023-03-31T10:27:44;7.40;;;3.00;;
59167;SDS011;44948;55.046;73.266;2023-03-31T10:30:53;7.10;;;2.85;;
59167;SDS011;44948;55.046;73.266;2023-03-31T10:34:05;12.63;;;3.97;;
59167;SDS011;44948;55.046;73.266;2023-03-31T10:37:12;8.82;;;2.40;;
59167;SDS011;44948;55.046;73.266;2023-03-31T10:40:23;9.07;;;2.50;;
59167;SDS011;44948;55.046;73.266;2023-03-31T10:46:48;14.65;;;3.10;;
59167;SDS011;44948;55.046;73.266;2023-03-31T10:49:56;14.57;;;3.08;;
59167;SDS011;44948;55.046;73.266;2023-03-31T10:53:31;11.15;;;2.10;;
59167;SDS011;44948;55.046;73.266;2023-03-31T10:56:33;5.82;;;1.92;;
59167;SDS011;44948;55.046;73.266;2023-03-31T11:02:57;9.57;;;2.30;;
59167;SDS011;44948;55.046;73.266;2023-03-31T11:12:59;12.30;;;2.80;;
59167;SDS011;44948;55.046;73.266;2023-03-31T11:23:01;8.50;;;2.63;;
59167;SDS011;44948;55.046;73.266;2023-03-31T11:26:21;15.75;;;2.65;;
59167;SDS011;44948;55.046;73.266;2023-03-31T11:29:36;9.43;;;3.03;;
59167;SDS011;44948;55.046;73.266;2023-03-31T11:36:39;8.43;;;2.70;;
59167;SDS011;44948;55.046;73.266;2023-03-31T11:40:15;14.80;;;5.07;;
59167;SDS011;44948;55.046;73.266;2023-03-31T11:43:39;20.52;;;4.85;;
59167;SDS011;44948;55.046;73.266;2023-03-31T11:46:59;15.85;;;4.05;;
59167;SDS011;44948;55.046;73.266;2023-03-31T11:50:10;11.52;;;3.42;;
59167;SDS011;44948;55.046;73.266;2023-03-31T11:53:18;12.32;;;2.30;;
59167;SDS011;44948;55.046;73.266;2023-03-31T11:56:29;7.05;;;2.20;;
59167;SDS011;44948;55.046;73.266;2023-03-31T11:59:36;11.32;;;3.70;;
59167;SDS011;44948;55.046;73.266;2023-03-31T12:06:12;8.82;;;2.60;;
59167;SDS011;44948;55.046;73.266;2023-03-31T12:09:24;18.67;;;3.10;;
59167;SDS011;44948;55.046;73.266;2023-03-31T12:12:55;9.00;;;3.78;;
59167;SDS011;44948;55.046;73.266;2023-03-31T12:16:10;15.52;;;3.70;;
59167;SDS011;44948;55.046;73.266;2023-03-31T12:19:39;16.02;;;3.75;;
59167;SDS011;44948;55.046;73.266;2023-03-31T12:22:58;20.85;;;3.83;;
59167;SDS011;44948;55.046;73.266;2023-03-31T12:26:49;11.02;;;3.42;;
59167;SDS011;44948;55.046;73.266;2023-03-31T12:30:17;15.90;;;3.58;;
59167;SDS011;44948;55.046;73.266;2023-03-31T12:33:04;19.23;;;4.70;;
59167;SDS011;44948;55.046;73.266;2023-03-31T12:37:06;39.10;;;14.50;;
59167;SDS011;44948;55.046;73.266;2023-03-31T12:40:22;51.95;;;16.80;;
59167;SDS011;44948;55.046;73.266;2023-03-31T12:46:57;7.45;;;3.55;;
59167;SDS011;44948;55.046;73.266;2023-03-31T12:54:01;8.95;;;2.92;;
59167;SDS011;44948;55.046;73.266;2023-03-31T12:57:25;11.70;;;2.55;;
59167;SDS011;44948;55.046;73.266;2023-03-31T13:00:28;16.30;;;4.37;;
59167;SDS011;44948;55.046;73.266;2023-03-31T13:06:45;11.30;;;4.45;;
59167;SDS011;44948;55.046;73.266;2023-03-31T13:09:56;12.73;;;3.88;;
59167;SDS011;44948;55.046;73.266;2023-03-31T13:13:03;10.88;;;5.05;;
59167;SDS011;44948;55.046;73.266;2023-03-31T13:16:08;40.75;;;15.15;;
59167;SDS011;44948;55.046;73.266;2023-03-31T13:28:46;18.27;;;7.97;;
59167;SDS011;44948;55.046;73.266;2023-03-31T13:32:31;27.55;;;13.27;;
59167;SDS011;44948;55.046;73.266;2023-03-31T13:35:34;21.10;;;10.05;;
59167;SDS011;44948;55.046;73.266;2023-03-31T13:38:46;12.10;;;4.07;;
59167;SDS011;44948;55.046;73.266;2023-03-31T13:52:43;26.40;;;8.50;;
59167;SDS011;44948;55.046;73.266;2023-03-31T14:03:12;24.65;;;8.48;;
59167;SDS011;44948;55.046;73.266;2023-03-31T14:06:36;25.98;;;9.57;;
59167;SDS011;44948;55.046;73.266;2023-03-31T14:09:46;37.20;;;12.30;;
59167;SDS011;44948;55.046;73.266;2023-03-31T14:13:03;42.28;;;11.63;;
59167;SDS011;44948;55.046;73.266;2023-03-31T14:16:26;47.88;;;15.35;;
59167;SDS011;44948;55.046;73.266;2023-03-31T14:30:38;28.83;;;9.56;;
59167;SDS011;44948;55.046;73.266;2023-03-31T14:37:17;33.15;;;6.97;;
59167;SDS011;44948;55.046;73.266;2023-03-31T14:40:29;31.51;;;10.16;;
59167;SDS011;44948;55.046;73.266;2023-03-31T14:43:32;38.67;;;9.50;;
59167;SDS011;44948;55.046;73.266;2023-03-31T14:46:50;29.70;;;9.27;;
59167;SDS011;44948;55.046;73.266;2023-03-31T14:53:18;21.73;;;7.38;;
59167;SDS011;44948;55.046;73.266;2023-03-31T14:56:42;28.30;;;6.53;;
59167;SDS011;44948;55.046;73.266;2023-03-31T14:59:58;23.05;;;5.45;;
59167;SDS011;44948;55.046;73.266;2023-03-31T15:03:12;20.73;;;5.38;;
59167;SDS011;44948;55.046;73.266;2023-03-31T15:06:26;17.77;;;4.25;;
59167;SDS011;44948;55.046;73.266;2023-03-31T15:09:29;21.65;;;5.75;;
59167;SDS011;44948;55.046;73.266;2023-03-31T15:12:36;17.02;;;5.30;;
59167;SDS011;44948;55.046;73.266;2023-03-31T15:15:39;24.27;;;5.88;;
59167;SDS011;44948;55.046;73.266;2023-03-31T15:18:55;26.40;;;6.65;;
59167;SDS011;44948;55.046;73.266;2023-03-31T15:25:19;31.55;;;6.25;;
59167;SDS011;44948;55.046;73.266;2023-03-31T15:28:22;22.63;;;6.63;;
59167;SDS011;44948;55.046;73.266;2023-03-31T15:31:34;57.60;;;9.95;;
59167;SDS011;44948;55.046;73.266;2023-03-31T15:34:37;52.42;;;11.70;;
59167;SDS011;44948;55.046;73.266;2023-03-31T15:37:45;65.10;;;13.90;;
59167;SDS011;44948;55.046;73.266;2023-03-31T15:40:50;83.38;;;16.42;;
59167;SDS011;44948;55.046;73.266;2023-03-31T15:44:04;115.53;;;23.88;;
59167;SDS011;44948;55.046;73.266;2023-03-31T15:47:16;126.38;;;24.33;;
59167;SDS011;44948;55.046;73.266;2023-03-31T15:50:20;106.85;;;20.65;;
59167;SDS011;44948;55.046;73.266;2023-03-31T15:53:50;92.53;;;18.38;;
59167;SDS011;44948;55.046;73.266;2023-03-31T15:56:55;100.90;;;22.48;;
59167;SDS011;44948;55.046;73.266;2023-03-31T16:00:01;144.35;;;26.63;;
59167;SDS011;44948;55.046;73.266;2023-03-31T16:03:23;93.72;;;21.55;;
59167;SDS011;44948;55.046;73.266;2023-03-31T16:09:54;44.97;;;12.73;;
59167;SDS011;44948;55.046;73.266;2023-03-31T16:13:04;48.60;;;12.50;;
59167;SDS011;44948;55.046;73.266;2023-03-31T16:16:11;46.55;;;11.23;;
59167;SDS011;44948;55.046;73.266;2023-03-31T16:19:18;41.30;;;8.57;;
59167;SDS011;44948;55.046;73.266;2023-03-31T16:25:33;33.05;;;8.65;;
59167;SDS011;44948;55.046;73.266;2023-03-31T16:28:41;18.45;;;7.68;;
59167;SDS011;44948;55.046;73.266;2023-03-31T16:32:05;40.97;;;7.53;;
59167;SDS011;44948;55.046;73.266;2023-03-31T16:35:09;25.25;;;6.75;;
59167;SDS011;44948;55.046;73.266;2023-03-31T16:38:12;29.60;;;6.85;;
59167;SDS011;44948;55.046;73.266;2023-03-31T16:41:16;26.10;;;8.18;;
59167;SDS011;44948;55.046;73.266;2023-03-31T16:44:20;24.13;;;8.35;;
59167;SDS011;44948;55.046;73.266;2023-03-31T16:47:22;34.67;;;9.70;;
59167;SDS011;44948;55.046;73.266;2023-03-31T16:50:28;31.98;;;10.55;;
59167;SDS011;44948;55.046;73.266;2023-03-31T16:53:32;38.40;;;13.82;;
59167;SDS011;44948;55.046;73.266;2023-03-31T16:56:38;48.05;;;13.73;;
59167;SDS011;44948;55.046;73.266;2023-03-31T16:59:41;57.55;;;18.27;;
59167;SDS011;44948;55.046;73.266;2023-03-31T17:02:44;65.72;;;18.58;;
59167;SDS011;44948;55.046;73.266;2023-03-31T17:05:54;44.63;;;18.20;;
59167;SDS011;44948;55.046;73.266;2023-03-31T17:09:04;61.97;;;20.27;;
59167;SDS011;44948;55.046;73.266;2023-03-31T17:12:06;69.90;;;21.70;;
59167;SDS011;44948;55.046;73.266;2023-03-31T17:15:09;76.00;;;22.67;;
59167;SDS011;44948;55.046;73.266;2023-03-31T17:18:14;61.47;;;21.65;;
59167;SDS011;44948;55.046;73.266;2023-03-31T17:21:17;56.00;;;20.35;;
59167;SDS011;44948;55.046;73.266;2023-03-31T17:24:30;59.60;;;18.90;;
59167;SDS011;44948;55.046;73.266;2023-03-31T17:27:39;59.45;;;19.80;;
59167;SDS011;44948;55.046;73.266;2023-03-31T17:30:41;61.20;;;18.33;;
59167;SDS011;44948;55.046;73.266;2023-03-31T17:33:44;60.50;;;20.10;;
59167;SDS011;44948;55.046;73.266;2023-03-31T17:36:50;69.45;;;19.52;;
59167;SDS011;44948;55.046;73.266;2023-03-31T17:39:55;61.85;;;18.90;;
59167;SDS011;44948;55.046;73.266;2023-03-31T17:43:04;52.28;;;17.52;;
59167;SDS011;44948;55.046;73.266;2023-03-31T17:46:12;52.60;;;16.08;;
59167;SDS011;44948;55.046;73.266;2023-03-31T17:49:15;50.08;;;16.80;;
59167;SDS011;44948;55.046;73.266;2023-03-31T17:52:18;48.33;;;16.04;;
59167;SDS011;44948;55.046;73.266;2023-03-31T17:55:20;53.70;;;17.58;;
59167;SDS011;44948;55.046;73.266;2023-03-31T17:58:23;49.38;;;16.73;;
59167;SDS011;44948;55.046;73.266;2023-03-31T18:01:25;59.75;;;17.98;;
59167;SDS011;44948;55.046;73.266;2023-03-31T18:04:40;52.78;;;15.48;;
59167;SDS011;44948;55.046;73.266;2023-03-31T18:07:45;50.97;;;17.20;;
59167;SDS011;44948;55.046;73.266;2023-03-31T18:10:47;56.90;;;17.50;;
59167;SDS011;44948;55.046;73.266;2023-03-31T18:14:00;48.28;;;16.40;;
59167;SDS011;44948;55.046;73.266;2023-03-31T18:17:03;58.33;;;17.98;;
59167;SDS011;44948;55.046;73.266;2023-03-31T18:20:05;58.55;;;17.67;;
59167;SDS011;44948;55.046;73.266;2023-03-31T18:23:08;52.38;;;16.77;;
59167;SDS011;44948;55.046;73.266;2023-03-31T18:26:22;43.72;;;16.77;;
59167;SDS011;44948;55.046;73.266;2023-03-31T18:29:26;56.95;;;17.67;;
59167;SDS011;44948;55.046;73.266;2023-03-31T18:32:29;55.83;;;17.27;;
59167;SDS011;44948;55.046;73.266;2023-03-31T18:35:31;49.15;;;14.60;;
59167;SDS011;44948;55.046;73.266;2023-03-31T18:38:44;52.08;;;16.38;;
59167;SDS011;44948;55.046;73.266;2023-03-31T18:41:48;42.72;;;15.38;;
59167;SDS011;44948;55.046;73.266;2023-03-31T18:44:51;47.47;;;15.85;;
59167;SDS011;44948;55.046;73.266;2023-03-31T18:47:53;41.72;;;14.38;;
59167;SDS011;44948;55.046;73.266;2023-03-31T18:50:56;59.38;;;14.65;;
59167;SDS011;44948;55.046;73.266;2023-03-31T18:53:59;39.22;;;13.15;;
59167;SDS011;44948;55.046;73.266;2023-03-31T18:57:01;41.08;;;13.75;;
59167;SDS011;44948;55.046;73.266;2023-03-31T19:00:04;51.67;;;12.13;;
59167;SDS011;44948;55.046;73.266;2023-03-31T19:03:08;44.40;;;12.52;;
59167;SDS011;44948;55.046;73.266;2023-03-31T19:06:10;46.55;;;12.38;;
59167;SDS011;44948;55.046;73.266;2023-03-31T19:09:13;38.45;;;11.00;;
59167;SDS011;44948;55.046;73.266;2023-03-31T19:12:26;32.55;;;8.43;;
59167;SDS011;44948;55.046;73.266;2023-03-31T19:15:28;31.67;;;8.68;;
59167;SDS011;44948;55.046;73.266;2023-03-31T19:18:31;26.77;;;9.07;;
59167;SDS011;44948;55.046;73.266;2023-03-31T19:21:34;23.73;;;8.48;;
59167;SDS011;44948;55.046;73.266;2023-03-31T19:24:37;24.02;;;8.60;;
59167;SDS011;44948;55.046;73.266;2023-03-31T19:27:40;26.75;;;8.43;;
59167;SDS011;44948;55.046;73.266;2023-03-31T19:30:43;21.70;;;6.95;;
59167;SDS011;44948;55.046;73.266;2023-03-31T19:33:45;25.35;;;6.40;;
59167;SDS011;44948;55.046;73.266;2023-03-31T19:36:47;24.48;;;5.85;;
59167;SDS011;44948;55.046;73.266;2023-03-31T19:39:50;17.70;;;6.20;;
59167;SDS011;44948;55.046;73.266;2023-03-31T19:42:53;18.48;;;6.50;;
59167;SDS011;44948;55.046;73.266;2023-03-31T19:45:59;20.42;;;5.43;;
59167;SDS011;44948;55.046;73.266;2023-03-31T19:52:08;12.90;;;4.63;;
59167;SDS011;44948;55.046;73.266;2023-03-31T19:55:15;17.13;;;4.90;;
59167;SDS011;44948;55.046;73.266;2023-03-31T19:58:18;14.43;;;4.47;;
59167;SDS011;44948;55.046;73.266;2023-03-31T20:01:21;17.88;;;4.88;;
59167;SDS011;44948;55.046;73.266;2023-03-31T20:04:27;14.10;;;4.50;;
59167;SDS011;44948;55.046;73.266;2023-03-31T20:07:29;12.52;;;4.70;;
59167;SDS011;44948;55.046;73.266;2023-03-31T20:10:34;16.48;;;6.22;;
59167;SDS011;44948;55.046;73.266;2023-03-31T20:13:46;14.93;;;3.40;;
59167;SDS011;44948;55.046;73.266;2023-03-31T20:17:00;14.45;;;4.47;;
59167;SDS011;44948;55.046;73.266;2023-03-31T20:20:03;15.75;;;4.10;;
59167;SDS011;44948;55.046;73.266;2023-03-31T20:23:09;13.23;;;3.83;;
59167;SDS011;44948;55.046;73.266;2023-03-31T20:26:23;12.48;;;4.35;;
59167;SDS011;44948;55.046;73.266;2023-03-31T20:29:36;12.15;;;4.13;;
59167;SDS011;44948;55.046;73.266;2023-03-31T20:32:39;11.90;;;4.05;;
59167;SDS011;44948;55.046;73.266;2023-03-31T20:35:41;17.60;;;4.88;;
59167;SDS011;44948;55.046;73.266;2023-03-31T20:38:45;12.98;;;3.35;;
59167;SDS011;44948;55.046;73.266;2023-03-31T20:41:48;8.35;;;3.40;;
59167;SDS011;44948;55.046;73.266;2023-03-31T20:44:51;16.83;;;3.72;;
59167;SDS011;44948;55.046;73.266;2023-03-31T20:47:54;12.38;;;3.40;;
59167;SDS011;44948;55.046;73.266;2023-03-31T20:50:56;12.45;;;4.28;;
59167;SDS011;44948;55.046;73.266;2023-03-31T20:54:04;14.47;;;3.63;;
59167;SDS011;44948;55.046;73.266;2023-03-31T20:57:08;16.75;;;4.30;;
59167;SDS011;44948;55.046;73.266;2023-03-31T21:00:16;12.27;;;3.90;;
59167;SDS011;44948;55.046;73.266;2023-03-31T21:03:19;9.20;;;3.45;;
59167;SDS011;44948;55.046;73.266;2023-03-31T21:06:21;12.55;;;4.00;;
59167;SDS011;44948;55.046;73.266;2023-03-31T21:09:24;15.82;;;4.13;;
59167;SDS011;44948;55.046;73.266;2023-03-31T21:12:26;11.73;;;4.22;;
59167;SDS011;44948;55.046;73.266;2023-03-31T21:15:29;11.82;;;4.38;;
59167;SDS011;44948;55.046;73.266;2023-03-31T21:18:32;9.60;;;3.78;;